createdAt,value
2023-03-25T00:03:01.550Z,14.49
2023-03-25T00:08:04.642Z,13.97
2023-03-25T00:13:08.829Z,14.39
2023-03-25T00:18:11.543Z,13.35
2023-03-25T00:23:14.294Z,14.15
2023-03-25T00:28:18.433Z,13.69
2023-03-25T00:33:22.715Z,13.68
2023-03-25T00:38:33.742Z,13.76
2023-03-25T00:43:38.342Z,14.31
2023-03-25T00:48:42.000Z,14.80
2023-03-25T00:53:44.921Z,14.28
2023-03-25T00:58:49.212Z,14.34
2023-03-25T01:03:57.740Z,14.29
2023-03-25T01:09:02.427Z,14.72
2023-03-25T01:14:08.262Z,14.54
2023-03-25T01:19:11.360Z,14.71
2023-03-25T01:24:15.545Z,14.29
2023-03-25T01:29:21.493Z,14.69
2023-03-25T01:34:24.448Z,14.70
2023-03-25T01:39:28.518Z,14.41
2023-03-25T01:45:09.881Z,14.48
2023-03-25T01:50:15.510Z,14.24
2023-03-25T01:55:20.262Z,14.23
2023-03-25T02:00:23.451Z,14.17
2023-03-25T02:05:35.838Z,14.34
2023-03-25T02:10:38.675Z,14.34
2023-03-25T02:15:59.400Z,14.13
2023-03-25T02:21:46.016Z,14.51
2023-03-25T02:27:27.656Z,14.06
2023-03-25T02:32:48.223Z,14.06
2023-03-25T02:38:13.333Z,14.13
2023-03-25T02:43:24.404Z,13.74
2023-03-25T02:48:33.873Z,13.61
2023-03-25T02:53:41.020Z,14.41
2023-03-25T02:58:46.944Z,14.09
2023-03-25T03:03:49.888Z,14.35
2023-03-25T03:09:12.709Z,13.56
2023-03-25T03:14:34.090Z,13.29
2023-03-25T03:19:41.935Z,13.74
2023-03-25T03:24:51.304Z,14.01
2023-03-25T03:29:58.533Z,13.35
2023-03-25T03:35:05.704Z,13.69
2023-03-25T03:40:14.594Z,13.20
2023-03-25T03:45:23.245Z,13.38
2023-03-25T03:50:29.038Z,13.42
2023-03-25T03:55:39.116Z,13.60
2023-03-25T04:00:49.798Z,13.54
2023-03-25T04:05:58.777Z,13.73
2023-03-25T04:11:09.049Z,14.07
2023-03-25T04:16:12.464Z,13.79
2023-03-25T04:21:17.683Z,13.27
2023-03-25T04:26:21.931Z,13.76
2023-03-25T04:31:25.935Z,13.34
2023-03-25T04:36:29.743Z,13.49
2023-03-25T04:41:33.958Z,13.61
2023-03-25T04:46:37.832Z,13.36
2023-03-25T04:51:41.891Z,13.88
2023-03-25T04:56:47.587Z,13.35
2023-03-25T05:01:50.497Z,13.33
2023-03-25T05:06:53.532Z,13.26
2023-03-25T05:11:57.737Z,13.14
2023-03-25T05:17:00.598Z,13.16
2023-03-25T05:22:04.677Z,13.15
2023-03-25T05:27:08.962Z,13.00
2023-03-25T05:32:13.731Z,13.03
2023-03-25T05:37:16.593Z,14.05
2023-03-25T05:42:22.895Z,13.72
2023-03-25T05:47:28.800Z,13.98
2023-03-25T05:52:31.632Z,12.89
2023-03-25T05:57:36.305Z,13.52
2023-03-25T06:02:39.738Z,14.42
2023-03-25T06:07:43.705Z,13.74
2023-03-25T06:12:48.832Z,13.72
2023-03-25T06:17:51.580Z,13.26
2023-03-25T06:22:54.333Z,13.18
2023-03-25T06:28:03.245Z,13.55
2023-03-25T06:33:06.373Z,12.82
2023-03-25T06:38:10.760Z,13.23
2023-03-25T06:43:36.853Z,13.35
2023-03-25T06:49:05.388Z,13.93
2023-03-25T06:54:08.162Z,13.46
2023-03-25T06:59:12.291Z,13.33
2023-03-25T07:04:15.008Z,13.73
2023-03-25T07:09:17.896Z,13.80
2023-03-25T07:14:22.042Z,13.35
2023-03-25T07:19:24.879Z,14.04
2023-03-25T07:24:27.836Z,15.06
2023-03-25T07:29:32.033Z,14.56
2023-03-25T07:34:34.909Z,15.37
2023-03-25T07:39:37.977Z,15.41
2023-03-25T07:44:42.143Z,15.24
2023-03-25T07:49:46.781Z,14.70
2023-03-25T07:54:49.567Z,15.73
2023-03-25T07:59:53.809Z,16.41
2023-03-25T08:04:57.430Z,15.47
2023-03-25T08:10:00.370Z,15.29
2023-03-25T08:15:04.863Z,14.98
2023-03-25T08:20:09.206Z,16.84
2023-03-25T08:25:13.134Z,17.01
2023-03-25T08:30:17.661Z,16.22
2023-03-25T08:35:20.842Z,16.15
2023-03-25T08:40:23.621Z,15.30
2023-03-25T08:45:28.044Z,15.52
2023-03-25T08:50:31.505Z,14.87
2023-03-25T08:55:34.431Z,14.37
2023-03-25T09:00:38.977Z,13.97
2023-03-25T09:05:41.767Z,14.35
2023-03-25T09:10:44.665Z,14.00
2023-03-25T09:15:48.898Z,13.38
2023-03-25T09:20:52.006Z,14.76
2023-03-25T09:25:54.801Z,14.23
2023-03-25T09:30:59.122Z,14.69
2023-03-25T09:36:02.321Z,14.25
2023-03-25T09:41:17.693Z,14.68
2023-03-25T09:46:22.605Z,14.37
2023-03-25T09:51:29.244Z,14.34
2023-03-25T09:56:42.410Z,14.08
2023-03-25T10:01:57.662Z,15.33
2023-03-25T10:07:13.096Z,14.38
2023-03-25T10:12:33.433Z,14.65
2023-03-25T10:17:47.158Z,16.82
2023-03-25T10:23:04.237Z,17.54
2023-03-25T10:28:11.597Z,16.78
2023-03-25T10:33:24.594Z,17.31
2023-03-25T10:38:30.157Z,17.06
2023-03-25T10:43:36.120Z,17.06
2023-03-25T10:48:41.011Z,16.97
2023-03-25T10:53:47.850Z,16.42
2023-03-25T10:58:53.742Z,15.67
2023-03-25T11:04:00.917Z,15.52
2023-03-25T11:09:18.647Z,15.82
2023-03-25T11:14:24.381Z,13.73
2023-03-25T11:19:31.989Z,14.93
2023-03-25T11:24:41.002Z,15.85
2023-03-25T11:29:52.880Z,15.23
2023-03-25T11:34:57.058Z,16.61
2023-03-25T11:40:06.765Z,16.83
2023-03-25T11:45:21.422Z,17.59
2023-03-25T11:50:28.018Z,17.87
2023-03-25T11:55:33.425Z,16.00
2023-03-25T12:00:42.304Z,16.61
2023-03-25T12:05:59.470Z,16.04
2023-03-25T12:11:07.930Z,15.75
2023-03-25T12:16:24.732Z,16.17
2023-03-25T12:21:43.173Z,16.71
2023-03-25T12:26:55.804Z,16.85
2023-03-25T12:32:11.349Z,17.21
2023-03-25T12:37:26.529Z,16.56
2023-03-25T12:42:38.147Z,17.27
2023-03-25T12:47:44.140Z,16.37
2023-03-25T12:52:57.336Z,15.86
2023-03-25T12:58:24.272Z,15.53
2023-03-25T13:03:45.219Z,15.62
2023-03-25T13:08:55.810Z,16.54
2023-03-25T13:14:03.542Z,16.33
2023-03-25T13:19:11.129Z,15.83
2023-03-25T13:24:18.850Z,15.20
2023-03-25T13:29:29.024Z,15.06
2023-03-25T13:34:37.648Z,16.67
2023-03-25T13:39:55.397Z,17.40
2023-03-25T13:44:59.847Z,16.22
2023-03-25T13:50:08.458Z,16.78
2023-03-25T13:55:16.900Z,17.15
2023-03-25T14:00:44.932Z,17.20
2023-03-25T14:06:32.361Z,16.37
2023-03-25T14:11:41.516Z,15.14
2023-03-25T14:16:48.736Z,15.32
2023-03-25T14:21:53.054Z,15.01
2023-03-25T14:27:02.074Z,14.86
2023-03-25T14:32:26.729Z,14.66
2023-03-25T14:37:31.092Z,14.37
2023-03-25T14:42:59.564Z,14.64
2023-03-25T14:48:04.648Z,15.64
2023-03-25T14:53:14.331Z,16.45
2023-03-25T14:58:22.003Z,15.99
2023-03-25T15:03:34.157Z,15.67
2023-03-25T15:08:39.549Z,14.77
2023-03-25T15:13:52.632Z,14.86
2023-03-25T15:19:11.777Z,15.13
2023-03-25T15:24:21.734Z,14.99
2023-03-25T15:29:58.675Z,15.17
2023-03-25T15:35:30.558Z,16.10
2023-03-25T15:40:45.407Z,15.21
2023-03-25T15:46:05.677Z,14.56
2023-03-25T15:51:38.145Z,14.86
2023-03-25T15:56:45.575Z,14.60
2023-03-25T16:01:53.132Z,14.54
2023-03-25T16:06:58.329Z,14.95
2023-03-25T16:12:02.588Z,15.10
2023-03-25T16:17:08.872Z,15.34
2023-03-25T16:22:18.603Z,14.96
2023-03-25T16:27:24.928Z,14.18
2023-03-25T16:32:33.629Z,13.25
2023-03-25T16:37:36.943Z,12.79
2023-03-25T16:42:39.858Z,13.11
2023-03-25T16:47:46.679Z,12.52
2023-03-25T16:52:51.316Z,12.42
2023-03-25T16:57:54.385Z,12.44
2023-03-25T17:03:01.594Z,12.71
2023-03-25T17:08:10.413Z,12.46
2023-03-25T17:13:20.399Z,13.50
2023-03-25T17:18:31.411Z,13.47
2023-03-25T17:23:37.165Z,13.30
2023-03-25T17:28:42.965Z,13.74
2023-03-25T17:33:50.598Z,13.67
2023-03-25T17:38:55.883Z,12.61
2023-03-25T17:43:59.525Z,13.00
2023-03-25T17:49:14.935Z,13.01
2023-03-25T17:54:17.775Z,13.09
2023-03-25T17:59:22.556Z,12.90
2023-03-25T18:04:29.794Z,13.04
2023-03-25T18:09:32.720Z,13.24
2023-03-25T18:14:35.777Z,13.09
2023-03-25T18:19:40.793Z,12.98
2023-03-25T18:24:43.720Z,11.91
2023-03-25T18:29:47.593Z,11.83
2023-03-25T18:34:52.853Z,11.99
2023-03-25T18:40:00.059Z,11.73
2023-03-25T18:45:02.824Z,12.62
2023-03-25T18:50:19.169Z,12.17
2023-03-25T18:55:22.008Z,13.13
2023-03-25T19:00:28.895Z,12.64
2023-03-25T19:05:34.067Z,13.20
2023-03-25T19:10:37.234Z,11.89
2023-03-25T19:15:41.563Z,12.49
2023-03-25T19:20:48.257Z,12.70
2023-03-25T19:25:53.241Z,12.59
2023-03-25T19:31:01.332Z,11.78
2023-03-25T19:36:06.420Z,12.25
2023-03-25T19:41:10.876Z,12.29
2023-03-25T19:46:13.693Z,12.36
2023-03-25T19:51:17.865Z,12.74
2023-03-25T19:56:20.726Z,12.18
2023-03-25T20:01:24.245Z,12.17
2023-03-25T20:06:29.510Z,12.41
2023-03-25T20:11:33.509Z,12.26
2023-03-25T20:16:36.510Z,11.56
2023-03-25T20:21:40.840Z,12.28
2023-03-25T20:26:44.141Z,12.00
2023-03-25T20:31:47.530Z,12.06
2023-03-25T20:36:51.782Z,12.31
2023-03-25T20:41:54.613Z,12.17
2023-03-25T20:46:57.833Z,11.93
2023-03-25T20:52:04.455Z,12.19
2023-03-25T20:57:07.432Z,11.81
2023-03-25T21:02:10.944Z,12.04
2023-03-25T21:07:19.432Z,11.76
2023-03-25T21:12:29.730Z,11.40
2023-03-25T21:17:36.132Z,11.97
2023-03-25T21:22:44.228Z,12.57
2023-03-25T21:27:47.544Z,12.20
2023-03-25T21:32:52.943Z,11.59
2023-03-25T21:38:00.846Z,11.81
2023-03-25T21:43:04.181Z,12.16
2023-03-25T21:48:08.218Z,12.12
2023-03-25T21:53:13.181Z,11.75
2023-03-25T21:58:16.316Z,11.61
2023-03-25T22:03:19.186Z,11.62
2023-03-25T22:08:23.637Z,11.68
2023-03-25T22:13:26.429Z,11.71
2023-03-25T22:18:29.711Z,12.25
2023-03-25T22:23:33.815Z,12.13
2023-03-25T22:28:37.299Z,12.73
2023-03-25T22:33:41.043Z,12.13
2023-03-25T22:38:46.886Z,12.49
2023-03-25T22:43:49.829Z,11.88
2023-03-25T22:48:52.958Z,11.92
2023-03-25T22:53:58.623Z,11.82
2023-03-25T22:59:01.969Z,11.59
2023-03-25T23:04:05.379Z,12.13
2023-03-25T23:09:11.206Z,11.91
2023-03-25T23:14:13.968Z,11.84
2023-03-25T23:19:18.524Z,11.86
2023-03-25T23:24:38.003Z,11.64
2023-03-25T23:29:47.607Z,11.53
2023-03-25T23:34:55.829Z,11.88
2023-03-25T23:40:00.134Z,11.75
2023-03-25T23:45:03.339Z,11.06
2023-03-25T23:50:09.153Z,11.85
2023-03-25T23:55:16.236Z,11.56
